sensor_id;sensor_type;location;lat;lon;timestamp;P1;durP1;ratioP1;P2;durP2;ratioP2
1460;SDS011;724;49.910;12.530;2024-01-15T00:01:00;11.80;;;11.20;;
1460;SDS011;724;49.910;12.530;2024-01-15T00:03:27;11.40;;;10.80;;
1460;SDS011;724;49.910;12.530;2024-01-15T00:05:54;11.90;;;11.30;;
1460;SDS011;724;49.910;12.530;2024-01-15T00:08:20;12.20;;;11.60;;
1460;SDS011;724;49.910;12.530;2024-01-15T00:10:48;12.30;;;11.70;;
1460;SDS011;724;49.910;12.530;2024-01-15T00:13:15;11.70;;;11.10;;
1460;SDS011;724;49.910;12.530;2024-01-15T00:15:42;12.10;;;11.50;;
1460;SDS011;724;49.910;12.530;2024-01-15T00:18:09;12.40;;;11.80;;
1460;SDS011;724;49.910;12.530;2024-01-15T00:20:36;11.98;;;11.38;;
1460;SDS011;724;49.910;12.530;2024-01-15T00:23:03;11.68;;;11.07;;
1460;SDS011;724;49.910;12.530;2024-01-15T00:25:30;12.40;;;11.80;;
1460;SDS011;724;49.910;12.530;2024-01-15T00:27:58;12.55;;;11.93;;
1460;SDS011;724;49.910;12.530;2024-01-15T00:30:24;12.30;;;11.70;;
1460;SDS011;724;49.910;12.530;2024-01-15T00:32:51;12.55;;;11.93;;
1460;SDS011;724;49.910;12.530;2024-01-15T00:35:18;12.30;;;11.70;;
1460;SDS011;724;49.910;12.530;2024-01-15T00:37:45;12.50;;;11.90;;
1460;SDS011;724;49.910;12.530;2024-01-15T00:40:12;12.55;;;11.93;;
1460;SDS011;724;49.910;12.530;2024-01-15T00:42:38;13.40;;;12.70;;
1460;SDS011;724;49.910;12.530;2024-01-15T00:45:07;12.68;;;12.00;;
1460;SDS011;724;49.910;12.530;2024-01-15T00:47:34;12.45;;;11.85;;
1460;SDS011;724;49.910;12.530;2024-01-15T00:50:01;12.65;;;11.98;;
1460;SDS011;724;49.910;12.530;2024-01-15T00:52:28;12.60;;;11.95;;
1460;SDS011;724;49.910;12.530;2024-01-15T00:54:54;12.70;;;12.00;;
1460;SDS011;724;49.910;12.530;2024-01-15T00:57:21;13.13;;;12.43;;
1460;SDS011;724;49.910;12.530;2024-01-15T00:59:48;12.90;;;12.20;;
1460;SDS011;724;49.910;12.530;2024-01-15T01:02:16;12.30;;;11.70;;
1460;SDS011;724;49.910;12.530;2024-01-15T01:04:43;13.02;;;12.32;;
1460;SDS011;724;49.910;12.530;2024-01-15T01:07:09;12.80;;;12.10;;
1460;SDS011;724;49.910;12.530;2024-01-15T01:09:36;13.07;;;12.38;;
1460;SDS011;724;49.910;12.530;2024-01-15T01:12:03;12.70;;;12.00;;
1460;SDS011;724;49.910;12.530;2024-01-15T01:14:30;12.98;;;12.27;;
1460;SDS011;724;49.910;12.530;2024-01-15T01:16:57;13.18;;;12.48;;
1460;SDS011;724;49.910;12.530;2024-01-15T01:19:26;12.88;;;12.18;;
1460;SDS011;724;49.910;12.530;2024-01-15T01:21:52;12.30;;;11.70;;
1460;SDS011;724;49.910;12.530;2024-01-15T01:24:19;13.10;;;12.40;;
1460;SDS011;724;49.910;12.530;2024-01-15T01:26:46;12.70;;;12.00;;
1460;SDS011;724;49.910;12.530;2024-01-15T01:29:13;12.80;;;12.10;;
1460;SDS011;724;49.910;12.530;2024-01-15T01:31:42;13.00;;;12.30;;
1460;SDS011;724;49.910;12.530;2024-01-15T01:34:09;12.70;;;12.00;;
1460;SDS011;724;49.910;12.530;2024-01-15T01:36:38;12.82;;;12.13;;
1460;SDS011;724;49.910;12.530;2024-01-15T01:39:05;13.10;;;12.40;;
1460;SDS011;724;49.910;12.530;2024-01-15T01:41:32;13.52;;;12.82;;
1460;SDS011;724;49.910;12.530;2024-01-15T01:43:59;13.20;;;12.50;;
1460;SDS011;724;49.910;12.530;2024-01-15T01:46:25;13.60;;;12.90;;
1460;SDS011;724;49.910;12.530;2024-01-15T01:48:53;13.80;;;13.10;;
1460;SDS011;724;49.910;12.530;2024-01-15T01:51:22;14.25;;;13.55;;
1460;SDS011;724;49.910;12.530;2024-01-15T01:53:51;13.90;;;13.20;;
1460;SDS011;724;49.910;12.530;2024-01-15T01:56:18;13.30;;;12.60;;
1460;SDS011;724;49.910;12.530;2024-01-15T01:58:45;12.70;;;12.00;;
1460;SDS011;724;49.910;12.530;2024-01-15T02:01:13;12.90;;;12.20;;
1460;SDS011;724;49.910;12.530;2024-01-15T02:03:42;12.73;;;12.02;;
1460;SDS011;724;49.910;12.530;2024-01-15T02:06:09;13.65;;;12.95;;
1460;SDS011;724;49.910;12.530;2024-01-15T02:08:36;13.70;;;13.00;;
1460;SDS011;724;49.910;12.530;2024-01-15T02:11:05;14.45;;;13.75;;
1460;SDS011;724;49.910;12.530;2024-01-15T02:13:32;13.70;;;13.00;;
1460;SDS011;724;49.910;12.530;2024-01-15T02:15:58;13.13;;;12.43;;
1460;SDS011;724;49.910;12.530;2024-01-15T02:18:25;12.90;;;12.20;;
1460;SDS011;724;49.910;12.530;2024-01-15T02:20:52;13.30;;;12.60;;
1460;SDS011;724;49.910;12.530;2024-01-15T02:23:20;13.00;;;12.30;;
1460;SDS011;724;49.910;12.530;2024-01-15T02:25:47;13.05;;;12.35;;
1460;SDS011;724;49.910;12.530;2024-01-15T02:28:14;12.80;;;12.10;;
1460;SDS011;724;49.910;12.530;2024-01-15T02:30:42;13.30;;;12.60;;
1460;SDS011;724;49.910;12.530;2024-01-15T02:33:10;13.32;;;12.63;;
1460;SDS011;724;49.910;12.530;2024-01-15T02:35:37;14.13;;;13.43;;
1460;SDS011;724;49.910;12.530;2024-01-15T02:38:04;13.75;;;13.05;;
1460;SDS011;724;49.910;12.530;2024-01-15T02:40:33;13.43;;;12.73;;
1460;SDS011;724;49.910;12.530;2024-01-15T02:43:00;12.50;;;11.90;;
1460;SDS011;724;49.910;12.530;2024-01-15T02:45:27;12.85;;;12.15;;
1460;SDS011;724;49.910;12.530;2024-01-15T02:47:54;12.50;;;11.90;;
1460;SDS011;724;49.910;12.530;2024-01-15T02:50:21;13.52;;;12.82;;
1460;SDS011;724;49.910;12.530;2024-01-15T02:52:47;13.65;;;12.95;;
1460;SDS011;724;49.910;12.530;2024-01-15T02:55:14;13.80;;;13.10;;
1460;SDS011;724;49.910;12.530;2024-01-15T02:57:42;14.32;;;13.63;;
1460;SDS011;724;49.910;12.530;2024-01-15T03:00:10;13.32;;;12.63;;
1460;SDS011;724;49.910;12.530;2024-01-15T03:02:38;13.23;;;12.52;;
1460;SDS011;724;49.910;12.530;2024-01-15T03:05:05;14.25;;;13.55;;
1460;SDS011;724;49.910;12.530;2024-01-15T03:07:33;13.10;;;12.40;;
1460;SDS011;724;49.910;12.530;2024-01-15T03:10:00;13.77;;;13.07;;
1460;SDS011;724;49.910;12.530;2024-01-15T03:12:26;13.40;;;12.70;;
1460;SDS011;724;49.910;12.530;2024-01-15T03:14:55;13.95;;;13.25;;
1460;SDS011;724;49.910;12.530;2024-01-15T03:17:21;14.25;;;13.55;;
1460;SDS011;724;49.910;12.530;2024-01-15T03:19:48;13.80;;;13.10;;
1460;SDS011;724;49.910;12.530;2024-01-15T03:22:15;14.05;;;13.35;;
1460;SDS011;724;49.910;12.530;2024-01-15T03:24:42;14.27;;;13.57;;
1460;SDS011;724;49.910;12.530;2024-01-15T03:27:09;13.80;;;13.10;;
1460;SDS011;724;49.910;12.530;2024-01-15T03:29:36;14.00;;;13.30;;
1460;SDS011;724;49.910;12.530;2024-01-15T03:32:04;14.20;;;13.50;;
1460;SDS011;724;49.910;12.530;2024-01-15T03:34:31;12.90;;;12.20;;
1460;SDS011;724;49.910;12.530;2024-01-15T03:36:58;13.27;;;12.57;;
1460;SDS011;724;49.910;12.530;2024-01-15T03:39:25;14.25;;;13.55;;
1460;SDS011;724;49.910;12.530;2024-01-15T03:41:52;13.80;;;13.10;;
1460;SDS011;724;49.910;12.530;2024-01-15T03:44:18;11.90;;;11.30;;
1460;SDS011;724;49.910;12.530;2024-01-15T03:46:45;13.20;;;12.50;;
1460;SDS011;724;49.910;12.530;2024-01-15T03:49:13;13.27;;;12.57;;
1460;SDS011;724;49.910;12.530;2024-01-15T03:51:40;12.40;;;11.80;;
1460;SDS011;724;49.910;12.530;2024-01-15T03:54:07;13.10;;;12.40;;
1460;SDS011;724;49.910;12.530;2024-01-15T03:56:33;13.00;;;12.30;;
1460;SDS011;724;49.910;12.530;2024-01-15T03:59:00;12.30;;;11.70;;
1460;SDS011;724;49.910;12.530;2024-01-15T04:01:28;12.80;;;12.10;;
1460;SDS011;724;49.910;12.530;2024-01-15T04:03:54;13.10;;;12.40;;
1460;SDS011;724;49.910;12.530;2024-01-15T04:06:23;12.20;;;11.60;;
1460;SDS011;724;49.910;12.530;2024-01-15T04:08:49;12.77;;;12.07;;
1460;SDS011;724;49.910;12.530;2024-01-15T04:11:16;13.40;;;12.70;;
1460;SDS011;724;49.910;12.530;2024-01-15T04:13:43;12.45;;;11.85;;
1460;SDS011;724;49.910;12.530;2024-01-15T04:16:10;12.95;;;12.25;;
1460;SDS011;724;49.910;12.530;2024-01-15T04:18:36;13.20;;;12.50;;
1460;SDS011;724;49.910;12.530;2024-01-15T04:21:03;13.00;;;12.30;;
1460;SDS011;724;49.910;12.530;2024-01-15T04:23:32;12.90;;;12.20;;
1460;SDS011;724;49.910;12.530;2024-01-15T04:25:59;12.95;;;12.25;;
1460;SDS011;724;49.910;12.530;2024-01-15T04:28:26;13.15;;;12.45;;
1460;SDS011;724;49.910;12.530;2024-01-15T04:30:53;12.20;;;11.60;;
1460;SDS011;724;49.910;12.530;2024-01-15T04:33:19;13.20;;;12.50;;
1460;SDS011;724;49.910;12.530;2024-01-15T04:35:46;13.25;;;12.55;;
1460;SDS011;724;49.910;12.530;2024-01-15T04:38:13;12.80;;;12.10;;
1460;SDS011;724;49.910;12.530;2024-01-15T04:40:41;12.00;;;11.40;;
1460;SDS011;724;49.910;12.530;2024-01-15T04:43:08;12.80;;;12.10;;
1460;SDS011;724;49.910;12.530;2024-01-15T04:45:34;12.23;;;11.63;;
1460;SDS011;724;49.910;12.530;2024-01-15T04:48:01;13.15;;;12.45;;
1460;SDS011;724;49.910;12.530;2024-01-15T04:50:28;12.35;;;11.75;;
1460;SDS011;724;49.910;12.530;2024-01-15T04:52:55;12.30;;;11.70;;
1460;SDS011;724;49.910;12.530;2024-01-15T04:55:22;11.75;;;11.15;;
1460;SDS011;724;49.910;12.530;2024-01-15T04:57:50;11.50;;;10.90;;
1460;SDS011;724;49.910;12.530;2024-01-15T05:00:17;12.00;;;11.40;;
1460;SDS011;724;49.910;12.530;2024-01-15T05:02:44;12.40;;;11.80;;
1460;SDS011;724;49.910;12.530;2024-01-15T05:05:11;12.55;;;11.93;;
1460;SDS011;724;49.910;12.530;2024-01-15T05:07:38;11.73;;;11.13;;
1460;SDS011;724;49.910;12.530;2024-01-15T05:10:05;12.10;;;11.50;;
1460;SDS011;724;49.910;12.530;2024-01-15T05:12:33;11.20;;;10.60;;
1460;SDS011;724;49.910;12.530;2024-01-15T05:15:01;11.90;;;11.30;;
1460;SDS011;724;49.910;12.530;2024-01-15T05:17:28;12.02;;;11.43;;
1460;SDS011;724;49.910;12.530;2024-01-15T05:19:55;11.40;;;10.80;;
1460;SDS011;724;49.910;12.530;2024-01-15T05:22:22;11.73;;;11.13;;
1460;SDS011;724;49.910;12.530;2024-01-15T05:24:49;11.40;;;10.80;;
1460;SDS011;724;49.910;12.530;2024-01-15T05:27:16;10.90;;;10.30;;
1460;SDS011;724;49.910;12.530;2024-01-15T05:29:43;11.55;;;10.95;;
1460;SDS011;724;49.910;12.530;2024-01-15T05:32:11;10.15;;;9.65;;
1460;SDS011;724;49.910;12.530;2024-01-15T05:34:38;10.10;;;9.60;;
1460;SDS011;724;49.910;12.530;2024-01-15T05:37:05;8.60;;;8.10;;
1460;SDS011;724;49.910;12.530;2024-01-15T05:39:31;8.80;;;8.30;;
1460;SDS011;724;49.910;12.530;2024-01-15T05:41:58;9.20;;;8.70;;
1460;SDS011;724;49.910;12.530;2024-01-15T05:44:25;8.68;;;8.18;;
1460;SDS011;724;49.910;12.530;2024-01-15T05:46:54;9.52;;;9.02;;
1460;SDS011;724;49.910;12.530;2024-01-15T05:49:32;9.40;;;8.90;;
1460;SDS011;724;49.910;12.530;2024-01-15T05:51:59;11.48;;;10.88;;
1460;SDS011;724;49.910;12.530;2024-01-15T05:54:26;10.80;;;10.20;;
1460;SDS011;724;49.910;12.530;2024-01-15T05:56:52;10.93;;;10.32;;
1460;SDS011;724;49.910;12.530;2024-01-15T05:59:19;10.50;;;9.95;;
1460;SDS011;724;49.910;12.530;2024-01-15T06:01:46;10.50;;;9.95;;
1460;SDS011;724;49.910;12.530;2024-01-15T06:04:13;10.63;;;10.02;;
1460;SDS011;724;49.910;12.530;2024-01-15T06:06:42;10.70;;;10.10;;
1460;SDS011;724;49.910;12.530;2024-01-15T06:09:08;11.02;;;10.43;;
1460;SDS011;724;49.910;12.530;2024-01-15T06:11:35;11.00;;;10.40;;
1460;SDS011;724;49.910;12.530;2024-01-15T06:14:02;10.70;;;10.10;;
1460;SDS011;724;49.910;12.530;2024-01-15T06:16:28;11.50;;;10.90;;
1460;SDS011;724;49.910;12.530;2024-01-15T06:18:55;11.23;;;10.63;;
1460;SDS011;724;49.910;12.530;2024-01-15T06:21:22;11.18;;;10.57;;
1460;SDS011;724;49.910;12.530;2024-01-15T06:23:50;11.32;;;10.73;;
1460;SDS011;724;49.910;12.530;2024-01-15T06:26:17;9.95;;;9.45;;
1460;SDS011;724;49.910;12.530;2024-01-15T06:28:44;10.13;;;9.63;;
1460;SDS011;724;49.910;12.530;2024-01-15T06:31:11;11.10;;;10.50;;
1460;SDS011;724;49.910;12.530;2024-01-15T06:33:38;11.45;;;10.85;;
1460;SDS011;724;49.910;12.530;2024-01-15T06:36:05;11.50;;;10.90;;
1460;SDS011;724;49.910;12.530;2024-01-15T06:38:32;11.45;;;10.85;;
1460;SDS011;724;49.910;12.530;2024-01-15T06:41:01;11.50;;;10.90;;
1460;SDS011;724;49.910;12.530;2024-01-15T06:43:27;11.02;;;10.43;;
1460;SDS011;724;49.910;12.530;2024-01-15T06:45:54;11.55;;;10.95;;
1460;SDS011;724;49.910;12.530;2024-01-15T06:48:21;10.55;;;9.98;;
1460;SDS011;724;49.910;12.530;2024-01-15T06:50:48;11.32;;;10.73;;
1460;SDS011;724;49.910;12.530;2024-01-15T06:53:15;11.70;;;11.10;;
1460;SDS011;724;49.910;12.530;2024-01-15T06:55:41;11.55;;;10.95;;
1460;SDS011;724;49.910;12.530;2024-01-15T06:58:10;10.73;;;10.13;;
1460;SDS011;724;49.910;12.530;2024-01-15T07:00:36;11.30;;;10.70;;
1460;SDS011;724;49.910;12.530;2024-01-15T07:03:03;11.30;;;10.70;;
1460;SDS011;724;49.910;12.530;2024-01-15T07:05:30;11.85;;;11.25;;
1460;SDS011;724;49.910;12.530;2024-01-15T07:08:02;11.40;;;10.80;;
1460;SDS011;724;49.910;12.530;2024-01-15T07:10:41;11.40;;;10.80;;
1460;SDS011;724;49.910;12.530;2024-01-15T07:13:10;11.65;;;11.05;;
1460;SDS011;724;49.910;12.530;2024-01-15T07:15:37;11.38;;;10.77;;
1460;SDS011;724;49.910;12.530;2024-01-15T07:18:05;12.50;;;11.90;;
1460;SDS011;724;49.910;12.530;2024-01-15T07:20:33;12.05;;;11.45;;
1460;SDS011;724;49.910;12.530;2024-01-15T07:23:04;12.50;;;11.90;;
1460;SDS011;724;49.910;12.530;2024-01-15T07:25:31;12.30;;;11.70;;
1460;SDS011;724;49.910;12.530;2024-01-15T07:27:58;11.85;;;11.25;;
1460;SDS011;724;49.910;12.530;2024-01-15T07:30:26;12.35;;;11.75;;
1460;SDS011;724;49.910;12.530;2024-01-15T07:32:53;12.35;;;11.75;;
1460;SDS011;724;49.910;12.530;2024-01-15T07:35:20;12.20;;;11.60;;
1460;SDS011;724;49.910;12.530;2024-01-15T07:37:47;12.30;;;11.70;;
1460;SDS011;724;49.910;12.530;2024-01-15T07:40:14;12.85;;;12.15;;
1460;SDS011;724;49.910;12.530;2024-01-15T07:42:41;12.90;;;12.20;;
1460;SDS011;724;49.910;12.530;2024-01-15T07:45:08;13.43;;;12.73;;
1460;SDS011;724;49.910;12.530;2024-01-15T07:47:37;12.50;;;11.90;;
1460;SDS011;724;49.910;12.530;2024-01-15T07:50:04;13.10;;;12.40;;
1460;SDS011;724;49.910;12.530;2024-01-15T07:52:31;13.30;;;12.60;;
1460;SDS011;724;49.910;12.530;2024-01-15T07:54:58;13.13;;;12.43;;
1460;SDS011;724;49.910;12.530;2024-01-15T07:57:26;13.55;;;12.85;;
1460;SDS011;724;49.910;12.530;2024-01-15T07:59:53;14.10;;;13.40;;
1460;SDS011;724;49.910;12.530;2024-01-15T08:02:19;13.57;;;12.88;;
1460;SDS011;724;49.910;12.530;2024-01-15T08:04:48;13.93;;;13.23;;
1460;SDS011;724;49.910;12.530;2024-01-15T08:07:14;14.05;;;13.35;;
1460;SDS011;724;49.910;12.530;2024-01-15T08:09:42;14.30;;;13.60;;
1460;SDS011;724;49.910;12.530;2024-01-15T08:12:11;13.93;;;13.23;;
1460;SDS011;724;49.910;12.530;2024-01-15T08:14:38;14.25;;;13.55;;
1460;SDS011;724;49.910;12.530;2024-01-15T08:17:05;14.00;;;13.30;;
1460;SDS011;724;49.910;12.530;2024-01-15T08:19:31;14.35;;;13.65;;
1460;SDS011;724;49.910;12.530;2024-01-15T08:21:59;14.32;;;13.63;;
1460;SDS011;724;49.910;12.530;2024-01-15T08:24:26;14.20;;;13.50;;
1460;SDS011;724;49.910;12.530;2024-01-15T08:26:53;13.60;;;12.90;;
1460;SDS011;724;49.910;12.530;2024-01-15T08:29:21;14.43;;;13.73;;
1460;SDS011;724;49.910;12.530;2024-01-15T08:31:49;14.45;;;13.75;;
1460;SDS011;724;49.910;12.530;2024-01-15T08:34:16;14.45;;;13.75;;
1460;SDS011;724;49.910;12.530;2024-01-15T08:36:43;14.02;;;13.32;;
1460;SDS011;724;49.910;12.530;2024-01-15T08:39:11;14.00;;;13.30;;
1460;SDS011;724;49.910;12.530;2024-01-15T08:41:38;14.65;;;13.93;;
1460;SDS011;724;49.910;12.530;2024-01-15T08:44:04;14.43;;;13.73;;
1460;SDS011;724;49.910;12.530;2024-01-15T08:46:31;14.60;;;13.90;;
1460;SDS011;724;49.910;12.530;2024-01-15T08:48:58;15.07;;;14.27;;
1460;SDS011;724;49.910;12.530;2024-01-15T08:51:24;15.50;;;14.70;;
1460;SDS011;724;49.910;12.530;2024-01-15T08:53:51;14.80;;;14.00;;
1460;SDS011;724;49.910;12.530;2024-01-15T08:56:19;15.40;;;14.60;;
1460;SDS011;724;49.910;12.530;2024-01-15T08:58:46;15.10;;;14.30;;
1460;SDS011;724;49.910;12.530;2024-01-15T09:01:13;15.02;;;14.23;;
1460;SDS011;724;49.910;12.530;2024-01-15T09:03:40;15.40;;;14.60;;
1460;SDS011;724;49.910;12.530;2024-01-15T09:06:07;15.10;;;14.30;;
1460;SDS011;724;49.910;12.530;2024-01-15T09:08:34;15.20;;;14.40;;
1460;SDS011;724;49.910;12.530;2024-01-15T09:11:02;15.63;;;14.82;;
1460;SDS011;724;49.910;12.530;2024-01-15T09:13:30;15.00;;;14.20;;
1460;SDS011;724;49.910;12.530;2024-01-15T09:18:24;15.27;;;14.48;;
1460;SDS011;724;49.910;12.530;2024-01-15T09:20:50;15.25;;;14.45;;
1460;SDS011;724;49.910;12.530;2024-01-15T09:23:17;15.10;;;14.30;;
1460;SDS011;724;49.910;12.530;2024-01-15T09:25:44;15.45;;;14.65;;
1460;SDS011;724;49.910;12.530;2024-01-15T09:28:11;15.10;;;14.30;;
1460;SDS011;724;49.910;12.530;2024-01-15T09:30:39;14.90;;;14.10;;
1460;SDS011;724;49.910;12.530;2024-01-15T09:33:06;15.18;;;14.38;;
1460;SDS011;724;49.910;12.530;2024-01-15T09:35:32;14.77;;;14.00;;
1460;SDS011;724;49.910;12.530;2024-01-15T09:37:59;14.95;;;14.15;;
1460;SDS011;724;49.910;12.530;2024-01-15T09:40:27;15.23;;;14.43;;
1460;SDS011;724;49.910;12.530;2024-01-15T09:42:58;14.90;;;14.10;;
1460;SDS011;724;49.910;12.530;2024-01-15T09:45:25;15.18;;;14.38;;
1460;SDS011;724;49.910;12.530;2024-01-15T09:47:53;15.00;;;14.20;;
1460;SDS011;724;49.910;12.530;2024-01-15T09:50:20;15.30;;;14.50;;
1460;SDS011;724;49.910;12.530;2024-01-15T09:52:47;15.13;;;14.32;;
1460;SDS011;724;49.910;12.530;2024-01-15T09:55:15;14.90;;;14.10;;
1460;SDS011;724;49.910;12.530;2024-01-15T09:57:43;15.20;;;14.40;;
1460;SDS011;724;49.910;12.530;2024-01-15T10:00:11;14.80;;;14.00;;
1460;SDS011;724;49.910;12.530;2024-01-15T10:02:38;14.55;;;13.85;;
1460;SDS011;724;49.910;12.530;2024-01-15T10:05:07;15.38;;;14.57;;
1460;SDS011;724;49.910;12.530;2024-01-15T10:07:34;15.45;;;14.65;;
1460;SDS011;724;49.910;12.530;2024-01-15T10:10:03;14.90;;;14.10;;
1460;SDS011;724;49.910;12.530;2024-01-15T10:12:30;15.35;;;14.55;;
1460;SDS011;724;49.910;12.530;2024-01-15T10:14:58;14.93;;;14.13;;
1460;SDS011;724;49.910;12.530;2024-01-15T10:17:25;15.45;;;14.65;;
1460;SDS011;724;49.910;12.530;2024-01-15T10:19:52;15.15;;;14.35;;
1460;SDS011;724;49.910;12.530;2024-01-15T10:22:20;15.20;;;14.40;;
1460;SDS011;724;49.910;12.530;2024-01-15T10:24:47;15.30;;;14.50;;
1460;SDS011;724;49.910;12.530;2024-01-15T10:27:13;15.65;;;14.85;;
1460;SDS011;724;49.910;12.530;2024-01-15T10:29:41;15.60;;;14.80;;
1460;SDS011;724;49.910;12.530;2024-01-15T10:32:08;15.20;;;14.40;;
1460;SDS011;724;49.910;12.530;2024-01-15T10:34:37;15.50;;;14.70;;
1460;SDS011;724;49.910;12.530;2024-01-15T10:37:04;15.60;;;14.80;;
1460;SDS011;724;49.910;12.530;2024-01-15T10:39:34;15.73;;;14.93;;
1460;SDS011;724;49.910;12.530;2024-01-15T10:42:01;15.32;;;14.52;;
1460;SDS011;724;49.910;12.530;2024-01-15T10:44:31;15.40;;;14.60;;
1460;SDS011;724;49.910;12.530;2024-01-15T10:46:58;15.20;;;14.40;;
1460;SDS011;724;49.910;12.530;2024-01-15T10:49:25;15.60;;;14.80;;
1460;SDS011;724;49.910;12.530;2024-01-15T10:51:54;15.63;;;14.82;;
1460;SDS011;724;49.910;12.530;2024-01-15T10:54:21;15.50;;;14.70;;
1460;SDS011;724;49.910;12.530;2024-01-15T10:56:50;15.50;;;14.70;;
1460;SDS011;724;49.910;12.530;2024-01-15T10:59:18;15.45;;;14.65;;
1460;SDS011;724;49.910;12.530;2024-01-15T11:01:47;16.15;;;15.35;;
1460;SDS011;724;49.910;12.530;2024-01-15T11:04:14;15.90;;;15.10;;
1460;SDS011;724;49.910;12.530;2024-01-15T11:06:43;15.85;;;15.05;;
1460;SDS011;724;49.910;12.530;2024-01-15T11:09:11;16.25;;;15.45;;
1460;SDS011;724;49.910;12.530;2024-01-15T11:11:40;16.17;;;15.38;;
1460;SDS011;724;49.910;12.530;2024-01-15T11:14:10;17.00;;;16.10;;
1460;SDS011;724;49.910;12.530;2024-01-15T11:19:23;15.80;;;15.00;;
1460;SDS011;724;49.910;12.530;2024-01-15T11:21:50;15.48;;;14.68;;
1460;SDS011;724;49.910;12.530;2024-01-15T11:24:33;15.60;;;14.80;;
1460;SDS011;724;49.910;12.530;2024-01-15T11:30:07;15.35;;;14.55;;
1460;SDS011;724;49.910;12.530;2024-01-15T11:32:46;15.30;;;14.50;;
1460;SDS011;724;49.910;12.530;2024-01-15T11:35:12;15.80;;;15.00;;
1460;SDS011;724;49.910;12.530;2024-01-15T11:40:38;15.75;;;14.95;;
1460;SDS011;724;49.910;12.530;2024-01-15T11:43:07;15.40;;;14.60;;
1460;SDS011;724;49.910;12.530;2024-01-15T11:45:36;15.90;;;15.10;;
1460;SDS011;724;49.910;12.530;2024-01-15T11:48:09;15.80;;;15.00;;
1460;SDS011;724;49.910;12.530;2024-01-15T11:50:36;16.10;;;15.30;;
1460;SDS011;724;49.910;12.530;2024-01-15T11:53:08;16.10;;;15.30;;
1460;SDS011;724;49.910;12.530;2024-01-15T11:55:43;16.33;;;15.52;;
1460;SDS011;724;49.910;12.530;2024-01-15T11:58:11;16.40;;;15.60;;
1460;SDS011;724;49.910;12.530;2024-01-15T12:00:42;17.05;;;16.15;;
1460;SDS011;724;49.910;12.530;2024-01-15T12:03:10;16.80;;;15.95;;
1460;SDS011;724;49.910;12.530;2024-01-15T12:05:37;16.00;;;15.20;;
1460;SDS011;724;49.910;12.530;2024-01-15T12:08:04;16.30;;;15.50;;
1460;SDS011;724;49.910;12.530;2024-01-15T12:10:35;16.35;;;15.55;;
1460;SDS011;724;49.910;12.530;2024-01-15T12:13:05;15.90;;;15.10;;
1460;SDS011;724;49.910;12.530;2024-01-15T12:15:36;16.05;;;15.25;;
1460;SDS011;724;49.910;12.530;2024-01-15T12:18:07;16.27;;;15.48;;
1460;SDS011;724;49.910;12.530;2024-01-15T12:20:35;16.60;;;15.80;;
1460;SDS011;724;49.910;12.530;2024-01-15T12:23:02;17.30;;;16.40;;
1460;SDS011;724;49.910;12.530;2024-01-15T12:25:30;17.15;;;16.25;;
1460;SDS011;724;49.910;12.530;2024-01-15T12:27:57;17.20;;;16.30;;
1460;SDS011;724;49.910;12.530;2024-01-15T12:30:25;16.70;;;15.90;;
1460;SDS011;724;49.910;12.530;2024-01-15T12:32:52;16.20;;;15.40;;
1460;SDS011;724;49.910;12.530;2024-01-15T12:35:23;16.45;;;15.65;;
1460;SDS011;724;49.910;12.530;2024-01-15T12:37:51;16.35;;;15.55;;
1460;SDS011;724;49.910;12.530;2024-01-15T12:40:18;16.03;;;15.23;;
1460;SDS011;724;49.910;12.530;2024-01-15T12:42:45;15.60;;;14.80;;
1460;SDS011;724;49.910;12.530;2024-01-15T12:45:15;15.95;;;15.15;;
1460;SDS011;724;49.910;12.530;2024-01-15T12:47:45;15.85;;;15.05;;
1460;SDS011;724;49.910;12.530;2024-01-15T12:50:13;16.50;;;15.70;;
1460;SDS011;724;49.910;12.530;2024-01-15T12:52:42;16.05;;;15.25;;
1460;SDS011;724;49.910;12.530;2024-01-15T12:55:14;16.40;;;15.60;;
1460;SDS011;724;49.910;12.530;2024-01-15T12:57:41;16.30;;;15.50;;
1460;SDS011;724;49.910;12.530;2024-01-15T13:00:10;16.05;;;15.25;;
1460;SDS011;724;49.910;12.530;2024-01-15T13:02:37;15.98;;;15.18;;
1460;SDS011;724;49.910;12.530;2024-01-15T13:05:08;15.95;;;15.15;;
1460;SDS011;724;49.910;12.530;2024-01-15T13:07:36;16.10;;;15.30;;
1460;SDS011;724;49.910;12.530;2024-01-15T13:10:04;16.00;;;15.20;;
1460;SDS011;724;49.910;12.530;2024-01-15T13:12:32;15.50;;;14.70;;
1460;SDS011;724;49.910;12.530;2024-01-15T13:14:59;15.75;;;14.95;;
1460;SDS011;724;49.910;12.530;2024-01-15T13:17:28;15.70;;;14.90;;
1460;SDS011;724;49.910;12.530;2024-01-15T13:19:55;15.93;;;15.13;;
1460;SDS011;724;49.910;12.530;2024-01-15T13:22:22;16.08;;;15.27;;
1460;SDS011;724;49.910;12.530;2024-01-15T13:24:54;16.27;;;15.48;;
1460;SDS011;724;49.910;12.530;2024-01-15T13:27:22;15.98;;;15.18;;
1460;SDS011;724;49.910;12.530;2024-01-15T13:29:49;16.10;;;15.30;;
1460;SDS011;724;49.910;12.530;2024-01-15T13:32:17;17.00;;;16.10;;
1460;SDS011;724;49.910;12.530;2024-01-15T13:34:50;16.02;;;15.23;;
1460;SDS011;724;49.910;12.530;2024-01-15T13:37:17;16.33;;;15.52;;
1460;SDS011;724;49.910;12.530;2024-01-15T13:39:44;16.55;;;15.75;;
1460;SDS011;724;49.910;12.530;2024-01-15T13:42:24;16.55;;;15.75;;
1460;SDS011;724;49.910;12.530;2024-01-15T13:45:07;16.05;;;15.25;;
1460;SDS011;724;49.910;12.530;2024-01-15T13:47:34;15.63;;;14.82;;
1460;SDS011;724;49.910;12.530;2024-01-15T13:50:02;15.40;;;14.60;;
1460;SDS011;724;49.910;12.530;2024-01-15T13:52:29;15.50;;;14.70;;
1460;SDS011;724;49.910;12.530;2024-01-15T13:54:56;15.55;;;14.75;;
1460;SDS011;724;49.910;12.530;2024-01-15T13:57:24;15.30;;;14.50;;
1460;SDS011;724;49.910;12.530;2024-01-15T13:59:51;15.60;;;14.80;;
1460;SDS011;724;49.910;12.530;2024-01-15T14:02:18;15.60;;;14.80;;
1460;SDS011;724;49.910;12.530;2024-01-15T14:04:45;15.88;;;15.07;;
1460;SDS011;724;49.910;12.530;2024-01-15T14:07:12;15.40;;;14.60;;
1460;SDS011;724;49.910;12.530;2024-01-15T14:09:39;15.68;;;14.88;;
1460;SDS011;724;49.910;12.530;2024-01-15T14:12:08;15.00;;;14.20;;
1460;SDS011;724;49.910;12.530;2024-01-15T14:14:36;15.25;;;14.45;;
1460;SDS011;724;49.910;12.530;2024-01-15T14:17:03;15.52;;;14.73;;
1460;SDS011;724;49.910;12.530;2024-01-15T14:19:30;15.52;;;14.73;;
1460;SDS011;724;49.910;12.530;2024-01-15T14:21:58;15.40;;;14.60;;
1460;SDS011;724;49.910;12.530;2024-01-15T14:24:25;15.77;;;14.98;;
1460;SDS011;724;49.910;12.530;2024-01-15T14:26:52;15.40;;;14.60;;
1460;SDS011;724;49.910;12.530;2024-01-15T14:29:19;15.90;;;15.10;;
1460;SDS011;724;49.910;12.530;2024-01-15T14:31:51;15.70;;;14.90;;
1460;SDS011;724;49.910;12.530;2024-01-15T14:34:18;15.57;;;14.77;;
1460;SDS011;724;49.910;12.530;2024-01-15T14:36:48;14.52;;;13.82;;
1460;SDS011;724;49.910;12.530;2024-01-15T14:39:15;15.20;;;14.40;;
1460;SDS011;724;49.910;12.530;2024-01-15T14:41:43;15.00;;;14.20;;
1460;SDS011;724;49.910;12.530;2024-01-15T14:44:11;15.00;;;14.20;;
1460;SDS011;724;49.910;12.530;2024-01-15T14:46:39;15.15;;;14.35;;
1460;SDS011;724;49.910;12.530;2024-01-15T14:49:07;14.48;;;13.77;;
1460;SDS011;724;49.910;12.530;2024-01-15T14:51:34;14.10;;;13.40;;
1460;SDS011;724;49.910;12.530;2024-01-15T14:54:01;14.80;;;14.00;;
1460;SDS011;724;49.910;12.530;2024-01-15T14:56:27;15.10;;;14.30;;
1460;SDS011;724;49.910;12.530;2024-01-15T14:58:54;15.00;;;14.20;;
1460;SDS011;724;49.910;12.530;2024-01-15T15:01:23;15.23;;;14.43;;